Time,TemperatureF,DewpointF,PressureIn,WindDirection,WindDirectionDegrees,WindSpeedMPH,WindSpeedGustMPH,Humidity,HourlyPrecipIn,Conditions,Clouds,dailyrainin,SolarRadiationWatts/m^2,SoftwareType,DateUTC
2013-10-04 00:04:00,68.0,68.0,-100.00,NE,39,0.0,0.0,99,0.00,,,0.00,0.000000,,2013-10-04 04:04:00,
2013-10-04 00:42:00,68.0,68.0,-100.00,NE,39,0.0,0.0,99,0.00,,,0.00,0.000000,,2013-10-04 04:42:00,
2013-10-04 00:51:00,68.0,68.0,-100.00,NE,39,0.0,0.0,99,0.00,,,0.00,0.000000,,2013-10-04 04:51:00,
2013-10-04 01:04:00,67.0,67.0,-100.00,NE,49,0.0,0.0,99,0.00,,,0.00,0.000000,,2013-10-04 05:04:00,
2013-10-04 01:41:00,67.0,67.0,-100.00,NE,49,0.0,0.0,99,0.00,,,0.00,0.000000,,2013-10-04 05:41:00,
2013-10-04 01:50:00,67.0,67.0,-100.00,NE,49,0.0,0.0,99,0.00,,,0.00,0.000000,,2013-10-04 05:50:00,
2013-10-04 02:00:00,67.0,67.0,-100.00,NE,49,0.0,0.0,99,0.00,,,0.00,0.000000,,2013-10-04 06:00:00,
2013-10-04 02:04:00,66.0,66.0,-100.00,North,359,0.0,0.0,99,0.00,,,0.00,0.000000,,2013-10-04 06:04:00,
2013-10-04 02:28:00,66.0,66.0,-100.00,North,359,0.0,0.0,99,0.00,,,0.00,0.000000,,2013-10-04 06:28:00,
2013-10-04 02:39:00,66.0,66.0,-100.00,North,359,0.0,0.0,99,0.00,,,0.00,0.000000,,2013-10-04 06:39:00,
2013-10-04 02:49:00,66.0,66.0,-100.00,North,359,0.0,0.0,99,0.00,,,0.00,0.000000,,2013-10-04 06:49:00,
2013-10-04 02:59:00,66.0,66.0,-100.00,North,359,0.0,0.0,99,0.00,,,0.00,0.000000,,2013-10-04 06:59:00,
2013-10-04 03:04:00,66.0,66.0,-100.00,NE,38,0.0,0.0,99,0.00,,,0.00,0.000000,,2013-10-04 07:04:00,
2013-10-04 03:29:00,66.0,66.0,-100.00,NE,38,0.0,0.0,99,0.00,,,0.00,0.000000,,2013-10-04 07:29:00,
2013-10-04 03:38:00,66.0,66.0,-100.00,NE,38,0.0,0.0,99,0.00,,,0.00,0.000000,,2013-10-04 07:38:00,
2013-10-04 03:49:00,66.0,66.0,-100.00,NE,38,0.0,0.0,99,0.00,,,0.00,0.000000,,2013-10-04 07:49:00,
2013-10-04 03:59:00,66.0,66.0,-100.00,NE,38,0.0,0.0,99,0.00,,,0.00,0.000000,,2013-10-04 07:59:00,
2013-10-04 04:04:00,65.0,65.0,-100.00,North,356,0.0,0.0,100,0.00,,,0.00,0.000000,,2013-10-04 08:04:00,
2013-10-04 04:29:00,65.0,65.0,-100.00,North,356,0.0,0.0,100,0.00,,,0.00,0.000000,,2013-10-04 08:29:00,
2013-10-04 04:38:00,65.0,65.0,-100.00,North,356,0.0,0.0,100,0.00,,,0.00,0.000000,,2013-10-04 08:38:00,
2013-10-04 04:49:00,65.0,65.0,-100.00,North,356,0.0,0.0,100,0.00,,,0.00,0.000000,,2013-10-04 08:49:00,
2013-10-04 04:59:00,65.0,65.0,-100.00,North,356,0.0,0.0,100,0.00,,,0.00,0.000000,,2013-10-04 08:59:00,
2013-10-04 05:04:00,65.0,65.0,-100.00,ENE,71,0.0,0.0,100,0.00,,,0.00,0.000000,,2013-10-04 09:04:00,
2013-10-04 05:51:00,65.0,65.0,-100.00,ENE,71,0.0,0.0,100,0.00,,,0.00,0.000000,,2013-10-04 09:51:00,
2013-10-04 06:01:00,65.0,65.0,-100.00,ENE,71,0.0,0.0,100,0.00,,,0.00,0.000000,,2013-10-04 10:01:00,
2013-10-04 06:04:00,66.0,66.0,-100.00,NNE,23,0.0,0.0,100,0.00,,,0.00,0.000000,,2013-10-04 10:04:00,
2013-10-04 06:51:00,66.0,66.0,-100.00,NNE,23,0.0,0.0,100,0.00,,,0.00,0.000000,,2013-10-04 10:51:00,
2013-10-04 07:02:00,66.0,66.0,-100.00,NNE,23,0.0,0.0,100,0.00,,,0.00,0.000000,,2013-10-04 11:02:00,
2013-10-04 07:04:00,65.0,65.0,-100.00,NE,54,0.0,0.0,100,0.00,,,0.00,0.000000,,2013-10-04 11:04:00,
2013-10-04 07:51:00,65.0,65.0,-100.00,NE,54,0.0,0.0,100,0.00,,,0.00,0.000000,,2013-10-04 11:51:00,
2013-10-04 08:01:00,65.0,65.0,-100.00,NE,54,0.0,0.0,100,0.00,,,0.00,0.000000,,2013-10-04 12:01:00,
2013-10-04 08:04:00,66.0,66.0,-100.00,NE,48,0.0,1.0,100,0.00,,,0.00,6.000000,,2013-10-04 12:04:00,
2013-10-04 08:51:00,66.0,66.0,-100.00,NE,48,0.0,1.0,100,0.00,,,0.00,6.000000,,2013-10-04 12:51:00,
2013-10-04 09:01:00,66.0,66.0,-100.00,NE,48,0.0,1.0,100,0.00,,,0.00,6.000000,,2013-10-04 13:01:00,
2013-10-04 09:04:00,69.0,69.0,-100.00,NW,309,1.0,3.0,100,0.00,,,0.00,90.000000,,2013-10-04 13:04:00,
2013-10-04 09:50:00,69.0,69.0,-100.00,NW,309,1.0,3.0,100,0.00,,,0.00,90.000000,,2013-10-04 13:50:00,
2013-10-04 10:01:00,69.0,69.0,-100.00,NW,309,1.0,3.0,100,0.00,,,0.00,90.000000,,2013-10-04 14:01:00,
2013-10-04 10:04:00,73.0,73.0,-100.00,NE,54,3.0,5.0,99,0.00,,,0.00,221.000000,,2013-10-04 14:04:00,
2013-10-04 10:51:00,73.0,73.0,-100.00,NE,54,3.0,5.0,99,0.00,,,0.00,221.000000,,2013-10-04 14:51:00,
2013-10-04 11:01:00,73.0,73.0,-100.00,NE,54,3.0,5.0,99,0.00,,,0.00,221.000000,,2013-10-04 15:01:00,
2013-10-04 11:04:00,77.0,75.0,-100.00,ENE,61,3.0,6.0,93,0.00,,,-99.99,345.000000,,2013-10-04 15:04:00,
2013-10-04 11:51:00,77.0,75.0,-100.00,ENE,61,3.0,6.0,93,0.00,,,-99.99,345.000000,,2013-10-04 15:51:00,
2013-10-04 12:02:00,77.0,75.0,-100.00,ENE,61,3.0,6.0,93,0.00,,,-99.99,345.000000,,2013-10-04 16:02:00,
2013-10-04 12:04:00,83.0,73.0,-100.00,NNE,20,4.0,7.0,73,0.00,,,0.00,744.000000,,2013-10-04 16:04:00,
2013-10-04 12:31:00,83.0,73.0,-100.00,NNE,20,4.0,7.0,73,0.00,,,0.00,744.000000,,2013-10-04 16:31:00,
2013-10-04 12:41:00,83.0,73.0,-100.00,NNE,20,4.0,7.0,73,0.00,,,0.00,744.000000,,2013-10-04 16:41:00,
2013-10-04 12:51:00,83.0,73.0,-100.00,NNE,20,4.0,7.0,73,0.00,,,0.00,744.000000,,2013-10-04 16:51:00,
2013-10-04 13:02:00,83.0,73.0,-100.00,NNE,20,4.0,7.0,73,0.00,,,0.00,744.000000,,2013-10-04 17:02:00,
2013-10-04 13:04:00,83.0,70.0,-100.00,North,0,2.0,6.0,65,0.00,,,0.00,329.000000,,2013-10-04 17:04:00,
2013-10-04 14:53:00,83.0,68.0,-100.00,East,101,3.0,9.0,60,0.00,,,0.00,413.000000,,2013-10-04 18:53:00,
2013-10-04 15:02:00,83.0,68.0,-100.00,East,101,3.0,9.0,60,0.00,,,0.00,413.000000,,2013-10-04 19:02:00,
2013-10-04 15:43:00,87.0,68.0,-100.00,East,86,4.0,8.0,54,0.00,,,0.00,811.000000,,2013-10-04 19:43:00,
2013-10-04 15:53:00,87.0,68.0,-100.00,East,86,4.0,8.0,54,0.00,,,0.00,811.000000,,2013-10-04 19:53:00,
2013-10-04 16:02:00,87.0,68.0,-100.00,East,86,4.0,8.0,54,0.00,,,0.00,811.000000,,2013-10-04 20:02:00,
2013-10-04 16:22:00,83.0,70.0,-100.00,East,86,6.0,12.0,65,0.00,,,0.00,577.000000,,2013-10-04 20:22:00,
2013-10-04 16:32:00,83.0,70.0,-100.00,East,86,6.0,12.0,65,0.00,,,0.00,577.000000,,2013-10-04 20:32:00,
2013-10-04 16:43:00,83.0,70.0,-100.00,East,86,6.0,12.0,65,0.00,,,0.00,577.000000,,2013-10-04 20:43:00,
2013-10-04 16:53:00,83.0,70.0,-100.00,East,86,6.0,12.0,65,0.00,,,0.00,577.000000,,2013-10-04 20:53:00,
2013-10-04 17:01:00,83.0,70.0,-100.00,East,86,6.0,12.0,65,0.00,,,0.00,577.000000,,2013-10-04 21:01:00,
2013-10-04 17:22:00,83.0,69.0,-100.00,ESE,114,4.0,10.0,62,0.00,,,0.00,458.000000,,2013-10-04 21:22:00,
2013-10-04 17:33:00,83.0,69.0,-100.00,ESE,114,4.0,10.0,62,0.00,,,0.00,458.000000,,2013-10-04 21:33:00,
2013-10-04 17:43:00,83.0,69.0,-100.00,ESE,114,4.0,10.0,62,0.00,,,0.00,458.000000,,2013-10-04 21:43:00,
2013-10-04 17:54:00,83.0,69.0,-100.00,ESE,114,4.0,10.0,62,0.00,,,0.00,458.000000,,2013-10-04 21:54:00,
2013-10-04 18:03:00,83.0,69.0,-100.00,ESE,114,4.0,10.0,62,0.00,,,0.00,458.000000,,2013-10-04 22:03:00,
2013-10-04 18:43:00,82.0,69.0,-100.00,East,97,5.0,9.0,65,0.00,,,0.00,317.000000,,2013-10-04 22:43:00,
2013-10-04 18:53:00,82.0,69.0,-100.00,East,97,5.0,9.0,65,0.00,,,0.00,317.000000,,2013-10-04 22:53:00,
2013-10-04 19:03:00,82.0,69.0,-100.00,East,97,5.0,9.0,65,0.00,,,0.00,317.000000,,2013-10-04 23:03:00,
2013-10-04 19:42:00,78.0,68.0,-100.00,East,91,3.0,8.0,72,0.00,,,0.00,73.000000,,2013-10-04 23:42:00,
2013-10-04 19:53:00,78.0,68.0,-100.00,East,91,3.0,8.0,72,0.00,,,0.00,73.000000,,2013-10-04 23:53:00,
2013-10-04 20:02:00,78.0,68.0,-100.00,East,91,3.0,8.0,72,0.00,,,0.00,73.000000,,2013-10-05 00:02:00,
2013-10-04 20:23:00,74.0,70.0,-100.00,East,80,2.0,6.0,87,0.00,,,0.00,1.000000,,2013-10-05 00:23:00,
2013-10-04 20:32:00,74.0,70.0,-100.00,East,80,2.0,6.0,87,0.00,,,0.00,1.000000,,2013-10-05 00:32:00,
2013-10-04 20:42:00,74.0,70.0,-100.00,East,80,2.0,6.0,87,0.00,,,0.00,1.000000,,2013-10-05 00:42:00,
2013-10-04 20:53:00,74.0,70.0,-100.00,East,80,2.0,6.0,87,0.00,,,0.00,1.000000,,2013-10-05 00:53:00,
2013-10-04 21:02:00,74.0,70.0,-100.00,East,80,2.0,6.0,87,0.00,,,0.00,1.000000,,2013-10-05 01:02:00,
2013-10-04 21:22:00,71.0,69.0,-100.00,SW,224,0.0,2.0,94,0.00,,,0.00,0.000000,,2013-10-05 01:22:00,
2013-10-04 21:32:00,71.0,69.0,-100.00,SW,224,0.0,2.0,94,0.00,,,0.00,0.000000,,2013-10-05 01:32:00,
2013-10-04 21:43:00,71.0,69.0,-100.00,SW,224,0.0,2.0,94,0.00,,,0.00,0.000000,,2013-10-05 01:43:00,
2013-10-04 21:52:00,71.0,69.0,-100.00,SW,224,0.0,2.0,94,0.00,,,0.00,0.000000,,2013-10-05 01:52:00,
2013-10-04 22:02:00,71.0,69.0,-100.00,SW,224,0.0,2.0,94,0.00,,,0.00,0.000000,,2013-10-05 02:02:00,
2013-10-04 22:42:00,70.0,69.0,-100.00,North,2,0.0,0.0,98,0.00,,,0.00,0.000000,,2013-10-05 02:42:00,
2013-10-04 22:52:00,70.0,69.0,-100.00,North,2,0.0,0.0,98,0.00,,,0.00,0.000000,,2013-10-05 02:52:00,
2013-10-04 23:03:00,70.0,69.0,-100.00,North,2,0.0,0.0,98,0.00,,,0.00,0.000000,,2013-10-05 03:03:00,
2013-10-04 23:04:00,69.0,68.0,-100.00,SE,125,0.0,2.0,98,0.00,,,0.00,0.000000,,2013-10-05 03:04:00,
2013-10-04 23:45:00,69.0,68.0,-100.00,SE,125,0.0,2.0,98,0.00,,,0.00,0.000000,,2013-10-05 03:45:00,
2013-10-04 23:55:00,69.0,68.0,-100.00,SE,125,0.0,2.0,98,0.00,,,0.00,0.000000,,2013-10-05 03:55:00,